Terminal Aerodrome Forecast
Issued by NWS

Home | Current Version | Previous Version | Text Only | Print | Product List | Glossary On
Versions: 1 2 3 4 5 6 7 8 9 10 11 12 13 14 15 16
000
FTUS45 KPSR 232300
TAFBLH
TAF
KBLH 232320Z 2400/2424 34010G16KT P6SM FEW250
     FM240300 34006KT P6SM SCT250
     FM241200 VRB04KT P6SM SCT250
     FM242100 19009KT P6SM SCT250=

USA.gov is the U.S. government's official web portal to all federal, state and local government web resources and services.